sensor_id;sensor_type;location;lat;lon;timestamp;P1;durP1;ratioP1;P2;durP2;ratioP2
6531;SDS011;3299;42.004;24.868;2023-02-23T00:00:26;8.77;;;4.78;;
6531;SDS011;3299;42.004;24.868;2023-02-23T00:02:53;4.70;;;4.13;;
6531;SDS011;3299;42.004;24.868;2023-02-23T00:05:22;5.68;;;4.05;;
6531;SDS011;3299;42.004;24.868;2023-02-23T00:07:49;7.22;;;4.88;;
6531;SDS011;3299;42.004;24.868;2023-02-23T00:10:16;5.82;;;4.40;;
6531;SDS011;3299;42.004;24.868;2023-02-23T00:12:43;7.20;;;4.40;;
6531;SDS011;3299;42.004;24.868;2023-02-23T00:15:09;6.40;;;4.60;;
6531;SDS011;3299;42.004;24.868;2023-02-23T00:17:35;6.65;;;4.38;;
6531;SDS011;3299;42.004;24.868;2023-02-23T00:20:04;4.45;;;4.05;;
6531;SDS011;3299;42.004;24.868;2023-02-23T00:22:32;8.15;;;4.63;;
6531;SDS011;3299;42.004;24.868;2023-02-23T00:24:58;5.68;;;3.72;;
6531;SDS011;3299;42.004;24.868;2023-02-23T00:27:24;4.78;;;3.78;;
6531;SDS011;3299;42.004;24.868;2023-02-23T00:29:50;4.93;;;3.70;;
6531;SDS011;3299;42.004;24.868;2023-02-23T00:32:16;5.57;;;3.97;;
6531;SDS011;3299;42.004;24.868;2023-02-23T00:34:44;6.20;;;4.20;;
6531;SDS011;3299;42.004;24.868;2023-02-23T00:37:13;6.53;;;4.20;;
6531;SDS011;3299;42.004;24.868;2023-02-23T00:39:38;5.28;;;4.53;;
6531;SDS011;3299;42.004;24.868;2023-02-23T00:42:04;6.57;;;4.35;;
6531;SDS011;3299;42.004;24.868;2023-02-23T00:44:31;7.55;;;4.95;;
6531;SDS011;3299;42.004;24.868;2023-02-23T00:46:57;5.55;;;4.25;;
6531;SDS011;3299;42.004;24.868;2023-02-23T00:49:24;8.85;;;4.88;;
6531;SDS011;3299;42.004;24.868;2023-02-23T00:51:50;9.43;;;4.82;;
6531;SDS011;3299;42.004;24.868;2023-02-23T00:54:19;7.53;;;4.22;;
6531;SDS011;3299;42.004;24.868;2023-02-23T00:56:46;6.63;;;3.92;;
6531;SDS011;3299;42.004;24.868;2023-02-23T00:59:11;7.03;;;4.80;;
6531;SDS011;3299;42.004;24.868;2023-02-23T01:01:38;8.07;;;4.38;;
6531;SDS011;3299;42.004;24.868;2023-02-23T01:04:05;7.35;;;4.75;;
6531;SDS011;3299;42.004;24.868;2023-02-23T01:06:32;5.32;;;3.95;;
6531;SDS011;3299;42.004;24.868;2023-02-23T01:08:58;4.30;;;3.90;;
6531;SDS011;3299;42.004;24.868;2023-02-23T01:11:29;4.32;;;3.75;;
6531;SDS011;3299;42.004;24.868;2023-02-23T01:13:58;5.78;;;4.05;;
6531;SDS011;3299;42.004;24.868;2023-02-23T01:16:28;5.93;;;3.80;;
6531;SDS011;3299;42.004;24.868;2023-02-23T01:18:59;4.80;;;3.50;;
6531;SDS011;3299;42.004;24.868;2023-02-23T01:21:28;5.15;;;3.95;;
6531;SDS011;3299;42.004;24.868;2023-02-23T01:23:56;3.72;;;3.42;;
6531;SDS011;3299;42.004;24.868;2023-02-23T01:26:22;5.78;;;3.80;;
6531;SDS011;3299;42.004;24.868;2023-02-23T01:28:50;5.32;;;3.75;;
6531;SDS011;3299;42.004;24.868;2023-02-23T01:31:17;5.55;;;3.70;;
6531;SDS011;3299;42.004;24.868;2023-02-23T01:33:43;8.55;;;3.83;;
6531;SDS011;3299;42.004;24.868;2023-02-23T01:36:10;5.32;;;3.63;;
6531;SDS011;3299;42.004;24.868;2023-02-23T01:38:36;3.78;;;3.30;;
6531;SDS011;3299;42.004;24.868;2023-02-23T01:41:02;5.13;;;3.67;;
6531;SDS011;3299;42.004;24.868;2023-02-23T01:43:28;6.45;;;3.38;;
6531;SDS011;3299;42.004;24.868;2023-02-23T01:45:54;4.75;;;3.13;;
6531;SDS011;3299;42.004;24.868;2023-02-23T01:48:21;5.68;;;3.53;;
6531;SDS011;3299;42.004;24.868;2023-02-23T01:50:52;6.07;;;3.55;;
6531;SDS011;3299;42.004;24.868;2023-02-23T01:53:21;3.85;;;3.45;;
6531;SDS011;3299;42.004;24.868;2023-02-23T01:55:56;4.07;;;3.47;;
6531;SDS011;3299;42.004;24.868;2023-02-23T01:58:24;4.22;;;3.65;;
6531;SDS011;3299;42.004;24.868;2023-02-23T02:00:53;4.35;;;3.38;;
6531;SDS011;3299;42.004;24.868;2023-02-23T02:03:25;4.20;;;3.58;;
6531;SDS011;3299;42.004;24.868;2023-02-23T02:06:06;8.07;;;3.47;;
6531;SDS011;3299;42.004;24.868;2023-02-23T02:08:35;6.15;;;3.50;;
6531;SDS011;3299;42.004;24.868;2023-02-23T02:11:18;4.72;;;3.92;;
6531;SDS011;3299;42.004;24.868;2023-02-23T02:13:59;4.47;;;3.40;;
6531;SDS011;3299;42.004;24.868;2023-02-23T02:22:35;4.32;;;3.38;;
6531;SDS011;3299;42.004;24.868;2023-02-23T02:39:27;8.50;;;4.10;;
6531;SDS011;3299;42.004;24.868;2023-02-23T02:47:31;4.30;;;3.92;;
6531;SDS011;3299;42.004;24.868;2023-02-23T02:53:27;5.70;;;3.75;;
6531;SDS011;3299;42.004;24.868;2023-02-23T02:55:59;4.97;;;3.70;;
6531;SDS011;3299;42.004;24.868;2023-02-23T02:58:29;4.75;;;3.83;;
6531;SDS011;3299;42.004;24.868;2023-02-23T03:00:55;6.15;;;2.97;;
6531;SDS011;3299;42.004;24.868;2023-02-23T03:03:47;6.90;;;3.58;;
6531;SDS011;3299;42.004;24.868;2023-02-23T03:06:33;3.90;;;2.88;;
6531;SDS011;3299;42.004;24.868;2023-02-23T03:12:39;4.55;;;4.13;;
6531;SDS011;3299;42.004;24.868;2023-02-23T03:21:32;3.50;;;3.03;;
6531;SDS011;3299;42.004;24.868;2023-02-23T03:24:30;4.88;;;3.38;;
6531;SDS011;3299;42.004;24.868;2023-02-23T03:27:51;7.68;;;3.22;;
6531;SDS011;3299;42.004;24.868;2023-02-23T03:33:48;4.95;;;3.10;;
6531;SDS011;3299;42.004;24.868;2023-02-23T03:36:38;5.85;;;3.17;;
6531;SDS011;3299;42.004;24.868;2023-02-23T03:39:36;3.80;;;3.10;;
6531;SDS011;3299;42.004;24.868;2023-02-23T03:42:26;3.40;;;3.17;;
6531;SDS011;3299;42.004;24.868;2023-02-23T03:45:16;3.53;;;3.25;;
6531;SDS011;3299;42.004;24.868;2023-02-23T03:48:04;8.43;;;3.70;;
6531;SDS011;3299;42.004;24.868;2023-02-23T03:50:52;3.70;;;3.28;;
6531;SDS011;3299;42.004;24.868;2023-02-23T03:53:44;5.50;;;3.40;;
6531;SDS011;3299;42.004;24.868;2023-02-23T03:56:29;6.40;;;3.63;;
6531;SDS011;3299;42.004;24.868;2023-02-23T03:59:19;4.40;;;3.00;;
6531;SDS011;3299;42.004;24.868;2023-02-23T04:02:09;3.50;;;3.20;;
6531;SDS011;3299;42.004;24.868;2023-02-23T04:04:55;3.42;;;3.13;;
6531;SDS011;3299;42.004;24.868;2023-02-23T04:07:45;4.25;;;3.00;;
6531;SDS011;3299;42.004;24.868;2023-02-23T04:10:34;2.75;;;2.55;;
6531;SDS011;3299;42.004;24.868;2023-02-23T04:13:23;3.28;;;2.65;;
6531;SDS011;3299;42.004;24.868;2023-02-23T04:15:55;2.55;;;2.35;;
6531;SDS011;3299;42.004;24.868;2023-02-23T04:18:26;3.28;;;2.92;;
6531;SDS011;3299;42.004;24.868;2023-02-23T04:20:54;3.28;;;2.97;;
6531;SDS011;3299;42.004;24.868;2023-02-23T04:23:20;3.33;;;2.83;;
6531;SDS011;3299;42.004;24.868;2023-02-23T04:25:50;4.22;;;3.00;;
6531;SDS011;3299;42.004;24.868;2023-02-23T04:28:16;2.95;;;2.75;;
6531;SDS011;3299;42.004;24.868;2023-02-23T04:30:42;3.35;;;2.67;;
6531;SDS011;3299;42.004;24.868;2023-02-23T04:33:08;3.08;;;2.83;;
6531;SDS011;3299;42.004;24.868;2023-02-23T04:35:33;2.90;;;2.70;;
6531;SDS011;3299;42.004;24.868;2023-02-23T04:37:59;3.35;;;2.42;;
6531;SDS011;3299;42.004;24.868;2023-02-23T04:40:25;2.70;;;2.50;;
6531;SDS011;3299;42.004;24.868;2023-02-23T04:42:52;2.72;;;2.47;;
6531;SDS011;3299;42.004;24.868;2023-02-23T04:45:21;4.53;;;2.83;;
6531;SDS011;3299;42.004;24.868;2023-02-23T04:47:47;3.22;;;2.90;;
6531;SDS011;3299;42.004;24.868;2023-02-23T04:50:13;3.65;;;3.10;;
6531;SDS011;3299;42.004;24.868;2023-02-23T04:52:39;3.03;;;2.72;;
6531;SDS011;3299;42.004;24.868;2023-02-23T04:55:06;5.50;;;2.80;;
6531;SDS011;3299;42.004;24.868;2023-02-23T04:57:33;4.18;;;3.08;;
6531;SDS011;3299;42.004;24.868;2023-02-23T04:59:59;3.42;;;2.92;;
6531;SDS011;3299;42.004;24.868;2023-02-23T05:02:24;3.13;;;2.83;;
6531;SDS011;3299;42.004;24.868;2023-02-23T05:04:50;2.78;;;2.58;;
6531;SDS011;3299;42.004;24.868;2023-02-23T05:07:16;3.35;;;2.67;;
6531;SDS011;3299;42.004;24.868;2023-02-23T05:09:41;4.45;;;2.92;;
6531;SDS011;3299;42.004;24.868;2023-02-23T05:12:07;3.97;;;2.95;;
6531;SDS011;3299;42.004;24.868;2023-02-23T05:14:33;3.88;;;3.20;;
6531;SDS011;3299;42.004;24.868;2023-02-23T05:16:58;4.03;;;2.90;;
6531;SDS011;3299;42.004;24.868;2023-02-23T05:19:24;3.10;;;2.75;;
6531;SDS011;3299;42.004;24.868;2023-02-23T05:21:49;2.83;;;2.63;;
6531;SDS011;3299;42.004;24.868;2023-02-23T05:24:15;3.17;;;2.75;;
6531;SDS011;3299;42.004;24.868;2023-02-23T05:26:42;6.68;;;3.03;;
6531;SDS011;3299;42.004;24.868;2023-02-23T05:29:09;4.30;;;3.13;;
6531;SDS011;3299;42.004;24.868;2023-02-23T05:31:34;3.80;;;3.38;;
6531;SDS011;3299;42.004;24.868;2023-02-23T05:34:00;4.93;;;3.58;;
6531;SDS011;3299;42.004;24.868;2023-02-23T05:36:25;5.10;;;3.05;;
6531;SDS011;3299;42.004;24.868;2023-02-23T05:38:51;2.83;;;2.63;;
6531;SDS011;3299;42.004;24.868;2023-02-23T05:41:18;3.20;;;2.92;;
6531;SDS011;3299;42.004;24.868;2023-02-23T05:43:45;5.43;;;2.60;;
6531;SDS011;3299;42.004;24.868;2023-02-23T05:46:14;3.08;;;2.88;;
6531;SDS011;3299;42.004;24.868;2023-02-23T05:48:41;4.55;;;3.25;;
6531;SDS011;3299;42.004;24.868;2023-02-23T05:51:08;3.40;;;2.85;;
6531;SDS011;3299;42.004;24.868;2023-02-23T05:53:35;3.33;;;2.80;;
6531;SDS011;3299;42.004;24.868;2023-02-23T05:56:02;2.38;;;2.28;;
6531;SDS011;3299;42.004;24.868;2023-02-23T05:58:29;2.92;;;2.58;;
6531;SDS011;3299;42.004;24.868;2023-02-23T06:00:55;3.15;;;2.90;;
6531;SDS011;3299;42.004;24.868;2023-02-23T06:03:20;3.28;;;2.97;;
6531;SDS011;3299;42.004;24.868;2023-02-23T06:05:50;3.28;;;2.80;;
6531;SDS011;3299;42.004;24.868;2023-02-23T06:08:20;5.13;;;3.33;;
6531;SDS011;3299;42.004;24.868;2023-02-23T06:10:45;6.53;;;3.58;;
6531;SDS011;3299;42.004;24.868;2023-02-23T06:13:12;3.10;;;2.65;;
6531;SDS011;3299;42.004;24.868;2023-02-23T06:15:38;3.28;;;2.88;;
6531;SDS011;3299;42.004;24.868;2023-02-23T06:18:04;4.57;;;2.92;;
6531;SDS011;3299;42.004;24.868;2023-02-23T06:20:30;3.40;;;2.97;;
6531;SDS011;3299;42.004;24.868;2023-02-23T06:22:55;3.42;;;2.60;;
6531;SDS011;3299;42.004;24.868;2023-02-23T06:25:21;2.90;;;2.70;;
6531;SDS011;3299;42.004;24.868;2023-02-23T06:27:47;2.80;;;2.47;;
6531;SDS011;3299;42.004;24.868;2023-02-23T06:30:12;3.00;;;2.70;;
6531;SDS011;3299;42.004;24.868;2023-02-23T06:32:38;3.03;;;2.78;;
6531;SDS011;3299;42.004;24.868;2023-02-23T06:35:04;3.28;;;2.70;;
6531;SDS011;3299;42.004;24.868;2023-02-23T06:37:31;3.47;;;2.90;;
6531;SDS011;3299;42.004;24.868;2023-02-23T06:39:57;3.45;;;3.05;;
6531;SDS011;3299;42.004;24.868;2023-02-23T06:42:23;3.92;;;3.03;;
6531;SDS011;3299;42.004;24.868;2023-02-23T06:44:48;3.38;;;2.95;;
6531;SDS011;3299;42.004;24.868;2023-02-23T06:47:14;2.80;;;2.60;;
6531;SDS011;3299;42.004;24.868;2023-02-23T06:49:39;3.42;;;3.00;;
6531;SDS011;3299;42.004;24.868;2023-02-23T06:52:06;3.55;;;2.55;;
6531;SDS011;3299;42.004;24.868;2023-02-23T06:54:32;2.85;;;2.35;;
6531;SDS011;3299;42.004;24.868;2023-02-23T06:56:58;6.45;;;3.05;;
6531;SDS011;3299;42.004;24.868;2023-02-23T06:59:24;3.80;;;3.17;;
6531;SDS011;3299;42.004;24.868;2023-02-23T07:01:49;2.72;;;2.53;;
6531;SDS011;3299;42.004;24.868;2023-02-23T07:04:15;3.60;;;3.28;;
6531;SDS011;3299;42.004;24.868;2023-02-23T07:06:40;6.43;;;3.33;;
6531;SDS011;3299;42.004;24.868;2023-02-23T07:09:06;4.30;;;3.55;;
6531;SDS011;3299;42.004;24.868;2023-02-23T07:11:31;5.32;;;3.53;;
6531;SDS011;3299;42.004;24.868;2023-02-23T07:13:57;11.65;;;4.40;;
6531;SDS011;3299;42.004;24.868;2023-02-23T07:16:23;10.27;;;4.65;;
6531;SDS011;3299;42.004;24.868;2023-02-23T07:18:49;7.93;;;5.28;;
6531;SDS011;3299;42.004;24.868;2023-02-23T07:21:15;12.35;;;5.07;;
6531;SDS011;3299;42.004;24.868;2023-02-23T07:23:40;8.95;;;5.10;;
6531;SDS011;3299;42.004;24.868;2023-02-23T07:26:05;8.27;;;4.63;;
6531;SDS011;3299;42.004;24.868;2023-02-23T07:28:31;8.18;;;5.00;;
6531;SDS011;3299;42.004;24.868;2023-02-23T07:30:57;6.18;;;4.70;;
6531;SDS011;3299;42.004;24.868;2023-02-23T07:33:23;11.07;;;5.32;;
6531;SDS011;3299;42.004;24.868;2023-02-23T07:35:49;12.82;;;5.05;;
6531;SDS011;3299;42.004;24.868;2023-02-23T07:38:15;8.60;;;5.28;;
6531;SDS011;3299;42.004;24.868;2023-02-23T07:40:41;6.38;;;4.90;;
6531;SDS011;3299;42.004;24.868;2023-02-23T07:43:07;9.70;;;5.88;;
6531;SDS011;3299;42.004;24.868;2023-02-23T07:45:33;12.48;;;5.65;;
6531;SDS011;3299;42.004;24.868;2023-02-23T07:48:00;9.70;;;5.47;;
6531;SDS011;3299;42.004;24.868;2023-02-23T07:50:25;10.32;;;5.85;;
6531;SDS011;3299;42.004;24.868;2023-02-23T07:52:51;11.70;;;5.95;;
6531;SDS011;3299;42.004;24.868;2023-02-23T07:55:16;11.70;;;6.50;;
6531;SDS011;3299;42.004;24.868;2023-02-23T07:57:42;21.08;;;6.35;;
6531;SDS011;3299;42.004;24.868;2023-02-23T08:00:09;18.83;;;6.80;;
6531;SDS011;3299;42.004;24.868;2023-02-23T08:02:35;14.68;;;6.78;;
6531;SDS011;3299;42.004;24.868;2023-02-23T08:05:00;14.73;;;6.90;;
6531;SDS011;3299;42.004;24.868;2023-02-23T08:07:26;14.52;;;7.00;;
6531;SDS011;3299;42.004;24.868;2023-02-23T08:09:51;15.30;;;6.70;;
6531;SDS011;3299;42.004;24.868;2023-02-23T08:12:17;10.90;;;5.78;;
6531;SDS011;3299;42.004;24.868;2023-02-23T08:14:43;16.05;;;7.75;;
6531;SDS011;3299;42.004;24.868;2023-02-23T08:17:09;12.05;;;6.68;;
6531;SDS011;3299;42.004;24.868;2023-02-23T08:19:35;15.85;;;7.50;;
6531;SDS011;3299;42.004;24.868;2023-02-23T08:22:01;14.07;;;6.85;;
6531;SDS011;3299;42.004;24.868;2023-02-23T08:24:27;13.55;;;9.18;;
6531;SDS011;3299;42.004;24.868;2023-02-23T08:26:54;17.70;;;9.38;;
6531;SDS011;3299;42.004;24.868;2023-02-23T08:29:20;14.02;;;7.47;;
6531;SDS011;3299;42.004;24.868;2023-02-23T08:31:46;17.85;;;7.93;;
6531;SDS011;3299;42.004;24.868;2023-02-23T08:34:11;14.05;;;7.63;;
6531;SDS011;3299;42.004;24.868;2023-02-23T08:36:37;17.85;;;7.85;;
6531;SDS011;3299;42.004;24.868;2023-02-23T08:39:04;12.52;;;7.07;;
6531;SDS011;3299;42.004;24.868;2023-02-23T08:41:31;13.10;;;7.07;;
6531;SDS011;3299;42.004;24.868;2023-02-23T08:43:57;12.02;;;6.95;;
6531;SDS011;3299;42.004;24.868;2023-02-23T08:46:23;14.60;;;7.47;;
6531;SDS011;3299;42.004;24.868;2023-02-23T08:48:48;16.77;;;7.65;;
6531;SDS011;3299;42.004;24.868;2023-02-23T08:51:14;12.48;;;7.18;;
6531;SDS011;3299;42.004;24.868;2023-02-23T08:53:39;13.27;;;6.95;;
6531;SDS011;3299;42.004;24.868;2023-02-23T08:56:05;15.15;;;7.35;;
6531;SDS011;3299;42.004;24.868;2023-02-23T08:58:32;11.40;;;6.70;;
6531;SDS011;3299;42.004;24.868;2023-02-23T09:00:59;20.00;;;7.00;;
6531;SDS011;3299;42.004;24.868;2023-02-23T09:03:25;9.13;;;5.80;;
6531;SDS011;3299;42.004;24.868;2023-02-23T09:05:54;11.73;;;6.28;;
6531;SDS011;3299;42.004;24.868;2023-02-23T09:08:20;12.05;;;7.03;;
6531;SDS011;3299;42.004;24.868;2023-02-23T09:10:46;9.88;;;6.63;;
6531;SDS011;3299;42.004;24.868;2023-02-23T09:13:12;16.48;;;6.28;;
6531;SDS011;3299;42.004;24.868;2023-02-23T09:15:38;9.38;;;5.80;;
6531;SDS011;3299;42.004;24.868;2023-02-23T09:18:05;13.63;;;6.53;;
6531;SDS011;3299;42.004;24.868;2023-02-23T09:20:31;8.55;;;6.65;;
6531;SDS011;3299;42.004;24.868;2023-02-23T09:22:57;9.63;;;5.20;;
6531;SDS011;3299;42.004;24.868;2023-02-23T09:25:23;8.40;;;5.45;;
6531;SDS011;3299;42.004;24.868;2023-02-23T09:27:49;7.22;;;4.70;;
6531;SDS011;3299;42.004;24.868;2023-02-23T09:30:16;8.55;;;5.35;;
6531;SDS011;3299;42.004;24.868;2023-02-23T09:32:45;10.18;;;4.63;;
6531;SDS011;3299;42.004;24.868;2023-02-23T09:35:11;8.70;;;5.07;;
6531;SDS011;3299;42.004;24.868;2023-02-23T09:37:36;7.38;;;5.13;;
6531;SDS011;3299;42.004;24.868;2023-02-23T09:40:01;7.15;;;4.05;;
6531;SDS011;3299;42.004;24.868;2023-02-23T09:45:50;5.85;;;4.38;;
6531;SDS011;3299;42.004;24.868;2023-02-23T09:48:26;7.93;;;4.25;;
6531;SDS011;3299;42.004;24.868;2023-02-23T09:50:54;10.32;;;4.10;;
6531;SDS011;3299;42.004;24.868;2023-02-23T09:55:49;6.22;;;4.07;;
6531;SDS011;3299;42.004;24.868;2023-02-23T09:58:27;7.95;;;4.43;;
6531;SDS011;3299;42.004;24.868;2023-02-23T10:03:29;6.60;;;3.97;;
6531;SDS011;3299;42.004;24.868;2023-02-23T10:05:59;8.52;;;4.50;;
6531;SDS011;3299;42.004;24.868;2023-02-23T10:08:32;4.88;;;3.70;;
6531;SDS011;3299;42.004;24.868;2023-02-23T10:13:36;6.28;;;5.30;;
6531;SDS011;3299;42.004;24.868;2023-02-23T10:16:56;7.82;;;4.30;;
6531;SDS011;3299;42.004;24.868;2023-02-23T10:22:17;5.32;;;3.63;;
6531;SDS011;3299;42.004;24.868;2023-02-23T10:24:46;7.05;;;3.92;;
6531;SDS011;3299;42.004;24.868;2023-02-23T10:27:20;6.80;;;4.53;;
6531;SDS011;3299;42.004;24.868;2023-02-23T10:29:56;8.25;;;4.10;;
6531;SDS011;3299;42.004;24.868;2023-02-23T10:35:14;4.57;;;3.53;;
6531;SDS011;3299;42.004;24.868;2023-02-23T10:37:41;7.97;;;4.03;;
6531;SDS011;3299;42.004;24.868;2023-02-23T10:40:07;6.82;;;3.30;;
6531;SDS011;3299;42.004;24.868;2023-02-23T10:42:41;4.85;;;3.78;;
6531;SDS011;3299;42.004;24.868;2023-02-23T10:45:13;7.65;;;3.58;;
6531;SDS011;3299;42.004;24.868;2023-02-23T10:47:43;3.88;;;3.35;;
6531;SDS011;3299;42.004;24.868;2023-02-23T10:50:10;6.82;;;3.95;;
6531;SDS011;3299;42.004;24.868;2023-02-23T10:52:41;4.75;;;3.33;;
6531;SDS011;3299;42.004;24.868;2023-02-23T10:55:29;8.18;;;4.13;;
6531;SDS011;3299;42.004;24.868;2023-02-23T10:58:00;8.65;;;4.30;;
6531;SDS011;3299;42.004;24.868;2023-02-23T11:00:29;5.85;;;3.55;;
6531;SDS011;3299;42.004;24.868;2023-02-23T11:02:57;5.90;;;3.90;;
6531;SDS011;3299;42.004;24.868;2023-02-23T11:08:58;4.68;;;4.07;;
6531;SDS011;3299;42.004;24.868;2023-02-23T11:18:34;9.88;;;4.00;;
6531;SDS011;3299;42.004;24.868;2023-02-23T11:21:00;8.00;;;4.13;;
6531;SDS011;3299;42.004;24.868;2023-02-23T11:23:27;4.75;;;3.72;;
6531;SDS011;3299;42.004;24.868;2023-02-23T11:25:56;7.35;;;3.63;;
6531;SDS011;3299;42.004;24.868;2023-02-23T11:28:34;7.15;;;4.28;;
6531;SDS011;3299;42.004;24.868;2023-02-23T11:31:14;7.15;;;4.10;;
6531;SDS011;3299;42.004;24.868;2023-02-23T11:33:44;5.00;;;3.88;;
6531;SDS011;3299;42.004;24.868;2023-02-23T11:36:32;6.13;;;3.38;;
6531;SDS011;3299;42.004;24.868;2023-02-23T11:39:17;10.57;;;3.70;;
6531;SDS011;3299;42.004;24.868;2023-02-23T11:42:02;7.05;;;4.03;;
6531;SDS011;3299;42.004;24.868;2023-02-23T11:44:51;5.43;;;4.20;;
6531;SDS011;3299;42.004;24.868;2023-02-23T11:47:32;9.65;;;4.85;;
6531;SDS011;3299;42.004;24.868;2023-02-23T11:50:02;7.07;;;4.88;;
6531;SDS011;3299;42.004;24.868;2023-02-23T11:52:29;7.43;;;5.13;;
6531;SDS011;3299;42.004;24.868;2023-02-23T11:54:59;8.25;;;6.03;;
6531;SDS011;3299;42.004;24.868;2023-02-23T11:57:33;6.88;;;5.22;;
6531;SDS011;3299;42.004;24.868;2023-02-23T12:00:03;8.05;;;6.45;;
6531;SDS011;3299;42.004;24.868;2023-02-23T12:02:40;12.02;;;6.80;;
6531;SDS011;3299;42.004;24.868;2023-02-23T12:05:26;9.27;;;7.07;;
6531;SDS011;3299;42.004;24.868;2023-02-23T12:18:06;11.60;;;8.45;;
6531;SDS011;3299;42.004;24.868;2023-02-23T12:20:41;11.70;;;8.63;;
6531;SDS011;3299;42.004;24.868;2023-02-23T12:23:10;10.27;;;8.32;;
6531;SDS011;3299;42.004;24.868;2023-02-23T12:25:41;11.07;;;8.85;;
6531;SDS011;3299;42.004;24.868;2023-02-23T12:28:24;12.07;;;8.93;;
6531;SDS011;3299;42.004;24.868;2023-02-23T12:31:20;14.95;;;9.50;;
6531;SDS011;3299;42.004;24.868;2023-02-23T12:34:09;15.43;;;9.93;;
6531;SDS011;3299;42.004;24.868;2023-02-23T12:36:44;16.73;;;11.60;;
6531;SDS011;3299;42.004;24.868;2023-02-23T12:44:45;19.10;;;12.75;;
6531;SDS011;3299;42.004;24.868;2023-02-23T12:47:25;20.40;;;13.27;;
6531;SDS011;3299;42.004;24.868;2023-02-23T12:50:09;26.30;;;14.48;;
6531;SDS011;3299;42.004;24.868;2023-02-23T12:52:47;23.00;;;13.32;;
6531;SDS011;3299;42.004;24.868;2023-02-23T12:55:20;23.52;;;14.50;;
6531;SDS011;3299;42.004;24.868;2023-02-23T13:00:58;18.80;;;12.80;;
6531;SDS011;3299;42.004;24.868;2023-02-23T13:06:19;22.55;;;13.98;;
6531;SDS011;3299;42.004;24.868;2023-02-23T13:11:46;19.45;;;13.73;;
6531;SDS011;3299;42.004;24.868;2023-02-23T13:20:10;27.13;;;15.07;;
6531;SDS011;3299;42.004;24.868;2023-02-23T13:22:48;30.15;;;16.48;;
6531;SDS011;3299;42.004;24.868;2023-02-23T13:28:00;31.55;;;15.55;;
6531;SDS011;3299;42.004;24.868;2023-02-23T13:30:30;29.55;;;16.55;;
6531;SDS011;3299;42.004;24.868;2023-02-23T13:32:56;25.15;;;15.57;;
6531;SDS011;3299;42.004;24.868;2023-02-23T13:35:26;30.55;;;16.15;;
6531;SDS011;3299;42.004;24.868;2023-02-23T13:40:56;30.15;;;17.55;;
6531;SDS011;3299;42.004;24.868;2023-02-23T13:43:39;24.60;;;16.48;;
6531;SDS011;3299;42.004;24.868;2023-02-23T13:46:18;30.55;;;17.17;;
6531;SDS011;3299;42.004;24.868;2023-02-23T13:51:58;28.55;;;15.65;;
6531;SDS011;3299;42.004;24.868;2023-02-23T13:54:32;27.27;;;16.35;;
6531;SDS011;3299;42.004;24.868;2023-02-23T13:56:59;28.13;;;16.90;;
6531;SDS011;3299;42.004;24.868;2023-02-23T13:59:30;24.77;;;15.55;;
6531;SDS011;3299;42.004;24.868;2023-02-23T14:02:20;29.23;;;17.05;;
6531;SDS011;3299;42.004;24.868;2023-02-23T14:04:51;28.40;;;16.67;;
6531;SDS011;3299;42.004;24.868;2023-02-23T14:07:26;31.75;;;18.02;;
6531;SDS011;3299;42.004;24.868;2023-02-23T14:09:59;30.63;;;16.95;;
6531;SDS011;3299;42.004;24.868;2023-02-23T14:12:38;29.67;;;17.27;;
6531;SDS011;3299;42.004;24.868;2023-02-23T14:20:51;27.00;;;15.02;;
6531;SDS011;3299;42.004;24.868;2023-02-23T14:31:33;28.58;;;18.73;;
6531;SDS011;3299;42.004;24.868;2023-02-23T14:33:59;33.72;;;18.58;;
6531;SDS011;3299;42.004;24.868;2023-02-23T14:36:35;36.53;;;19.45;;
6531;SDS011;3299;42.004;24.868;2023-02-23T14:39:07;37.55;;;20.73;;
6531;SDS011;3299;42.004;24.868;2023-02-23T14:41:42;35.85;;;19.23;;
6531;SDS011;3299;42.004;24.868;2023-02-23T14:46:49;46.80;;;25.25;;
6531;SDS011;3299;42.004;24.868;2023-02-23T14:49:21;35.20;;;19.50;;
6531;SDS011;3299;42.004;24.868;2023-02-23T14:51:51;33.05;;;20.20;;
6531;SDS011;3299;42.004;24.868;2023-02-23T14:56:50;39.67;;;21.05;;
6531;SDS011;3299;42.004;24.868;2023-02-23T14:59:22;54.70;;;30.05;;
6531;SDS011;3299;42.004;24.868;2023-02-23T15:02:06;44.92;;;22.45;;
6531;SDS011;3299;42.004;24.868;2023-02-23T15:04:34;38.72;;;21.38;;
6531;SDS011;3299;42.004;24.868;2023-02-23T15:07:03;37.83;;;20.75;;
6531;SDS011;3299;42.004;24.868;2023-02-23T15:12:17;50.58;;;24.75;;
6531;SDS011;3299;42.004;24.868;2023-02-23T15:14:46;40.08;;;23.85;;
6531;SDS011;3299;42.004;24.868;2023-02-23T15:17:19;42.58;;;23.98;;
6531;SDS011;3299;42.004;24.868;2023-02-23T15:19:49;46.63;;;24.83;;
6531;SDS011;3299;42.004;24.868;2023-02-23T15:22:23;43.05;;;22.63;;
6531;SDS011;3299;42.004;24.868;2023-02-23T15:24:51;44.25;;;25.10;;
6531;SDS011;3299;42.004;24.868;2023-02-23T15:27:23;44.70;;;22.25;;
6531;SDS011;3299;42.004;24.868;2023-02-23T15:29:53;45.05;;;23.60;;
6531;SDS011;3299;42.004;24.868;2023-02-23T15:32:20;39.63;;;22.45;;
6531;SDS011;3299;42.004;24.868;2023-02-23T15:34:49;37.22;;;21.60;;
6531;SDS011;3299;42.004;24.868;2023-02-23T15:39:51;38.50;;;22.55;;
6531;SDS011;3299;42.004;24.868;2023-02-23T15:42:22;41.03;;;23.02;;
6531;SDS011;3299;42.004;24.868;2023-02-23T15:45:00;45.95;;;26.70;;
6531;SDS011;3299;42.004;24.868;2023-02-23T15:47:33;48.03;;;26.75;;
6531;SDS011;3299;42.004;24.868;2023-02-23T15:50:03;47.58;;;26.38;;
6531;SDS011;3299;42.004;24.868;2023-02-23T15:52:32;49.42;;;27.70;;
6531;SDS011;3299;42.004;24.868;2023-02-23T15:55:04;47.10;;;26.00;;
6531;SDS011;3299;42.004;24.868;2023-02-23T15:57:53;40.33;;;25.08;;
6531;SDS011;3299;42.004;24.868;2023-02-23T16:00:24;56.22;;;31.40;;
6531;SDS011;3299;42.004;24.868;2023-02-23T16:02:56;47.25;;;28.75;;
6531;SDS011;3299;42.004;24.868;2023-02-23T16:05:26;52.50;;;30.33;;
6531;SDS011;3299;42.004;24.868;2023-02-23T16:10:59;53.42;;;30.98;;
6531;SDS011;3299;42.004;24.868;2023-02-23T16:13:26;59.67;;;32.47;;
6531;SDS011;3299;42.004;24.868;2023-02-23T16:15:52;59.58;;;31.92;;
6531;SDS011;3299;42.004;24.868;2023-02-23T16:18:19;62.33;;;33.55;;
6531;SDS011;3299;42.004;24.868;2023-02-23T16:20:52;63.78;;;36.65;;
6531;SDS011;3299;42.004;24.868;2023-02-23T16:23:25;70.57;;;35.10;;
6531;SDS011;3299;42.004;24.868;2023-02-23T16:25:54;59.80;;;34.15;;
6531;SDS011;3299;42.004;24.868;2023-02-23T16:28:25;77.70;;;39.38;;
6531;SDS011;3299;42.004;24.868;2023-02-23T16:31:02;70.18;;;36.53;;
6531;SDS011;3299;42.004;24.868;2023-02-23T16:33:30;81.30;;;39.50;;
6531;SDS011;3299;42.004;24.868;2023-02-23T16:38:35;61.75;;;35.33;;
6531;SDS011;3299;42.004;24.868;2023-02-23T16:41:03;69.28;;;37.92;;
6531;SDS011;3299;42.004;24.868;2023-02-23T16:43:29;70.00;;;38.75;;
6531;SDS011;3299;42.004;24.868;2023-02-23T16:45:55;60.05;;;32.95;;
6531;SDS011;3299;42.004;24.868;2023-02-23T16:48:21;58.55;;;32.60;;
6531;SDS011;3299;42.004;24.868;2023-02-23T16:50:48;62.95;;;33.42;;
6531;SDS011;3299;42.004;24.868;2023-02-23T16:53:14;57.28;;;31.83;;
6531;SDS011;3299;42.004;24.868;2023-02-23T16:55:58;76.10;;;37.78;;
6531;SDS011;3299;42.004;24.868;2023-02-23T16:58:24;56.97;;;33.47;;
6531;SDS011;3299;42.004;24.868;2023-02-23T17:00:53;56.30;;;31.55;;
6531;SDS011;3299;42.004;24.868;2023-02-23T17:03:23;57.40;;;31.02;;
6531;SDS011;3299;42.004;24.868;2023-02-23T17:05:50;58.33;;;29.15;;
6531;SDS011;3299;42.004;24.868;2023-02-23T17:08:16;57.72;;;30.60;;
6531;SDS011;3299;42.004;24.868;2023-02-23T17:10:42;47.17;;;28.27;;
6531;SDS011;3299;42.004;24.868;2023-02-23T17:15:44;45.95;;;24.05;;
6531;SDS011;3299;42.004;24.868;2023-02-23T17:18:12;46.20;;;26.30;;
6531;SDS011;3299;42.004;24.868;2023-02-23T17:20:37;39.95;;;26.27;;
6531;SDS011;3299;42.004;24.868;2023-02-23T17:23:03;41.28;;;24.70;;
6531;SDS011;3299;42.004;24.868;2023-02-23T17:25:28;38.92;;;22.67;;
6531;SDS011;3299;42.004;24.868;2023-02-23T17:27:54;46.85;;;25.25;;
6531;SDS011;3299;42.004;24.868;2023-02-23T17:30:21;32.17;;;20.45;;
6531;SDS011;3299;42.004;24.868;2023-02-23T17:32:47;34.35;;;21.83;;